sensor_id;sensor_type;location;lat;lon;timestamp;temperature;humidity
21823;DHT22;11074;48.596;9.238;2023-08-06T00:00:08;16.70;99.90
21823;DHT22;11074;48.596;9.238;2023-08-06T00:02:34;16.60;99.90
21823;DHT22;11074;48.596;9.238;2023-08-06T00:05:00;16.60;99.90
21823;DHT22;11074;48.596;9.238;2023-08-06T00:07:26;16.50;99.90
21823;DHT22;11074;48.596;9.238;2023-08-06T00:09:52;16.40;99.90
21823;DHT22;11074;48.596;9.238;2023-08-06T00:12:17;16.30;99.90
21823;DHT22;11074;48.596;9.238;2023-08-06T00:14:43;16.20;99.90
21823;DHT22;11074;48.596;9.238;2023-08-06T00:17:09;16.10;99.90
21823;DHT22;11074;48.596;9.238;2023-08-06T00:19:35;16.10;99.90
21823;DHT22;11074;48.596;9.238;2023-08-06T00:22:00;16.10;99.90
21823;DHT22;11074;48.596;9.238;2023-08-06T00:24:27;16.10;99.90
21823;DHT22;11074;48.596;9.238;2023-08-06T00:26:53;16.10;99.90
21823;DHT22;11074;48.596;9.238;2023-08-06T00:29:19;16.10;99.90
21823;DHT22;11074;48.596;9.238;2023-08-06T00:31:45;16.30;99.90
21823;DHT22;11074;48.596;9.238;2023-08-06T00:34:10;16.20;99.90
21823;DHT22;11074;48.596;9.238;2023-08-06T00:36:36;16.20;99.90
21823;DHT22;11074;48.596;9.238;2023-08-06T00:39:02;16.30;99.90
21823;DHT22;11074;48.596;9.238;2023-08-06T00:41:28;16.50;99.90
21823;DHT22;11074;48.596;9.238;2023-08-06T00:43:54;16.40;99.90
21823;DHT22;11074;48.596;9.238;2023-08-06T00:46:20;16.40;99.90
21823;DHT22;11074;48.596;9.238;2023-08-06T00:48:46;16.30;99.90
21823;DHT22;11074;48.596;9.238;2023-08-06T00:51:12;16.10;99.90
21823;DHT22;11074;48.596;9.238;2023-08-06T00:53:39;15.90;99.90
21823;DHT22;11074;48.596;9.238;2023-08-06T00:56:06;15.80;99.90
21823;DHT22;11074;48.596;9.238;2023-08-06T00:58:35;15.70;99.90
21823;DHT22;11074;48.596;9.238;2023-08-06T01:01:02;15.60;99.90
21823;DHT22;11074;48.596;9.238;2023-08-06T01:03:28;15.60;99.90
21823;DHT22;11074;48.596;9.238;2023-08-06T01:05:54;15.60;99.90
21823;DHT22;11074;48.596;9.238;2023-08-06T01:08:44;15.60;99.90
21823;DHT22;11074;48.596;9.238;2023-08-06T01:11:41;15.60;99.90
21823;DHT22;11074;48.596;9.238;2023-08-06T01:14:28;15.60;99.90
21823;DHT22;11074;48.596;9.238;2023-08-06T01:16:58;15.70;99.90
21823;DHT22;11074;48.596;9.238;2023-08-06T01:19:24;15.60;99.90
21823;DHT22;11074;48.596;9.238;2023-08-06T01:21:50;15.60;99.90
21823;DHT22;11074;48.596;9.238;2023-08-06T01:24:16;15.60;99.90
21823;DHT22;11074;48.596;9.238;2023-08-06T01:26:45;15.60;99.90
21823;DHT22;11074;48.596;9.238;2023-08-06T01:29:31;15.60;99.90
21823;DHT22;11074;48.596;9.238;2023-08-06T01:32:05;15.60;99.90
21823;DHT22;11074;48.596;9.238;2023-08-06T01:34:35;15.60;99.90
21823;DHT22;11074;48.596;9.238;2023-08-06T01:37:06;15.60;99.90
21823;DHT22;11074;48.596;9.238;2023-08-06T01:39:36;15.50;99.90
21823;DHT22;11074;48.596;9.238;2023-08-06T01:42:01;15.50;99.90
21823;DHT22;11074;48.596;9.238;2023-08-06T01:44:27;15.50;99.90
21823;DHT22;11074;48.596;9.238;2023-08-06T01:46:53;15.50;99.90
21823;DHT22;11074;48.596;9.238;2023-08-06T01:49:19;15.40;99.90
21823;DHT22;11074;48.596;9.238;2023-08-06T01:51:44;15.40;99.90
21823;DHT22;11074;48.596;9.238;2023-08-06T01:54:10;15.40;99.90
21823;DHT22;11074;48.596;9.238;2023-08-06T01:56:36;15.40;99.90
21823;DHT22;11074;48.596;9.238;2023-08-06T01:59:01;15.40;99.90
21823;DHT22;11074;48.596;9.238;2023-08-06T02:01:27;15.30;99.90
21823;DHT22;11074;48.596;9.238;2023-08-06T02:03:53;15.40;99.90
21823;DHT22;11074;48.596;9.238;2023-08-06T02:06:18;15.50;99.90
21823;DHT22;11074;48.596;9.238;2023-08-06T02:08:44;15.50;99.90
21823;DHT22;11074;48.596;9.238;2023-08-06T02:11:10;15.40;99.90
21823;DHT22;11074;48.596;9.238;2023-08-06T02:13:36;15.30;99.90
21823;DHT22;11074;48.596;9.238;2023-08-06T02:16:01;15.40;99.90
21823;DHT22;11074;48.596;9.238;2023-08-06T02:18:27;15.50;99.90
21823;DHT22;11074;48.596;9.238;2023-08-06T02:20:59;15.60;99.90
21823;DHT22;11074;48.596;9.238;2023-08-06T02:23:26;15.60;99.90
21823;DHT22;11074;48.596;9.238;2023-08-06T02:26:03;15.60;99.90
21823;DHT22;11074;48.596;9.238;2023-08-06T02:28:30;15.50;99.90
21823;DHT22;11074;48.596;9.238;2023-08-06T02:30:57;15.50;99.90
21823;DHT22;11074;48.596;9.238;2023-08-06T02:33:23;15.50;99.90
21823;DHT22;11074;48.596;9.238;2023-08-06T02:35:48;15.40;99.90
21823;DHT22;11074;48.596;9.238;2023-08-06T02:38:14;15.30;99.90
21823;DHT22;11074;48.596;9.238;2023-08-06T02:40:46;15.30;99.90
21823;DHT22;11074;48.596;9.238;2023-08-06T02:43:13;15.20;99.90
21823;DHT22;11074;48.596;9.238;2023-08-06T02:45:39;15.00;99.90
21823;DHT22;11074;48.596;9.238;2023-08-06T02:48:04;15.10;99.90
21823;DHT22;11074;48.596;9.238;2023-08-06T02:50:30;15.10;99.90
21823;DHT22;11074;48.596;9.238;2023-08-06T02:52:56;15.00;99.90
21823;DHT22;11074;48.596;9.238;2023-08-06T02:55:22;15.10;99.90
21823;DHT22;11074;48.596;9.238;2023-08-06T02:57:47;15.00;99.90
21823;DHT22;11074;48.596;9.238;2023-08-06T03:00:13;14.90;99.90
21823;DHT22;11074;48.596;9.238;2023-08-06T03:02:39;14.80;99.90
21823;DHT22;11074;48.596;9.238;2023-08-06T03:05:05;14.70;99.90
21823;DHT22;11074;48.596;9.238;2023-08-06T03:07:31;14.70;99.90
21823;DHT22;11074;48.596;9.238;2023-08-06T03:09:59;14.60;99.90
21823;DHT22;11074;48.596;9.238;2023-08-06T03:12:26;14.50;99.90
21823;DHT22;11074;48.596;9.238;2023-08-06T03:14:52;14.50;99.90
21823;DHT22;11074;48.596;9.238;2023-08-06T03:17:18;14.50;99.90
21823;DHT22;11074;48.596;9.238;2023-08-06T03:19:43;14.40;99.90
21823;DHT22;11074;48.596;9.238;2023-08-06T03:22:09;14.40;99.90
21823;DHT22;11074;48.596;9.238;2023-08-06T03:24:35;14.40;99.90
21823;DHT22;11074;48.596;9.238;2023-08-06T03:27:01;14.40;99.90
21823;DHT22;11074;48.596;9.238;2023-08-06T03:29:27;14.40;99.90
21823;DHT22;11074;48.596;9.238;2023-08-06T03:31:52;14.50;99.90
21823;DHT22;11074;48.596;9.238;2023-08-06T03:34:18;14.40;99.90
21823;DHT22;11074;48.596;9.238;2023-08-06T03:36:44;14.40;99.90
21823;DHT22;11074;48.596;9.238;2023-08-06T03:39:09;14.40;99.90
21823;DHT22;11074;48.596;9.238;2023-08-06T03:41:35;14.50;99.90
21823;DHT22;11074;48.596;9.238;2023-08-06T03:44:01;14.50;99.90
21823;DHT22;11074;48.596;9.238;2023-08-06T03:46:29;14.50;99.90
21823;DHT22;11074;48.596;9.238;2023-08-06T03:48:55;14.50;99.90
21823;DHT22;11074;48.596;9.238;2023-08-06T03:51:22;14.50;99.90
21823;DHT22;11074;48.596;9.238;2023-08-06T03:53:47;14.60;99.90
21823;DHT22;11074;48.596;9.238;2023-08-06T03:56:13;14.60;99.90
21823;DHT22;11074;48.596;9.238;2023-08-06T03:58:39;14.60;99.90
21823;DHT22;11074;48.596;9.238;2023-08-06T04:01:04;14.60;99.90
21823;DHT22;11074;48.596;9.238;2023-08-06T04:03:30;14.60;99.90
21823;DHT22;11074;48.596;9.238;2023-08-06T04:05:56;14.70;99.90
21823;DHT22;11074;48.596;9.238;2023-08-06T04:08:21;14.80;99.90
21823;DHT22;11074;48.596;9.238;2023-08-06T04:10:53;14.70;99.90
21823;DHT22;11074;48.596;9.238;2023-08-06T04:13:19;14.70;99.90
21823;DHT22;11074;48.596;9.238;2023-08-06T04:15:45;14.70;99.90
21823;DHT22;11074;48.596;9.238;2023-08-06T04:18:11;14.80;99.90
21823;DHT22;11074;48.596;9.238;2023-08-06T04:20:44;14.80;99.90
21823;DHT22;11074;48.596;9.238;2023-08-06T04:23:11;14.70;99.90
21823;DHT22;11074;48.596;9.238;2023-08-06T04:25:37;14.60;99.90
21823;DHT22;11074;48.596;9.238;2023-08-06T04:28:02;14.80;99.90
21823;DHT22;11074;48.596;9.238;2023-08-06T04:30:28;15.00;99.90
21823;DHT22;11074;48.596;9.238;2023-08-06T04:32:56;15.20;99.90
21823;DHT22;11074;48.596;9.238;2023-08-06T04:35:22;15.30;99.90
21823;DHT22;11074;48.596;9.238;2023-08-06T04:37:47;15.40;99.90
21823;DHT22;11074;48.596;9.238;2023-08-06T04:40:13;15.50;99.90
21823;DHT22;11074;48.596;9.238;2023-08-06T04:42:39;15.50;99.90
21823;DHT22;11074;48.596;9.238;2023-08-06T04:45:05;15.40;99.90
21823;DHT22;11074;48.596;9.238;2023-08-06T04:47:31;15.40;99.90
21823;DHT22;11074;48.596;9.238;2023-08-06T04:49:56;15.30;99.90
21823;DHT22;11074;48.596;9.238;2023-08-06T04:52:22;15.30;99.90
21823;DHT22;11074;48.596;9.238;2023-08-06T04:54:48;15.30;99.90
21823;DHT22;11074;48.596;9.238;2023-08-06T04:57:13;15.30;99.90
21823;DHT22;11074;48.596;9.238;2023-08-06T04:59:39;15.30;99.90
21823;DHT22;11074;48.596;9.238;2023-08-06T05:02:05;15.30;99.90
21823;DHT22;11074;48.596;9.238;2023-08-06T05:04:30;15.30;99.90
21823;DHT22;11074;48.596;9.238;2023-08-06T05:06:56;15.30;99.90
21823;DHT22;11074;48.596;9.238;2023-08-06T05:09:22;15.20;99.90
21823;DHT22;11074;48.596;9.238;2023-08-06T05:11:48;15.20;99.90
21823;DHT22;11074;48.596;9.238;2023-08-06T05:14:14;15.10;99.90
21823;DHT22;11074;48.596;9.238;2023-08-06T05:16:40;15.10;99.90
21823;DHT22;11074;48.596;9.238;2023-08-06T05:19:05;15.10;99.90
21823;DHT22;11074;48.596;9.238;2023-08-06T05:21:31;15.20;99.90
21823;DHT22;11074;48.596;9.238;2023-08-06T05:23:57;15.20;99.90
21823;DHT22;11074;48.596;9.238;2023-08-06T05:26:22;15.20;99.90
21823;DHT22;11074;48.596;9.238;2023-08-06T05:28:48;15.30;99.90
21823;DHT22;11074;48.596;9.238;2023-08-06T05:31:14;15.30;99.90
21823;DHT22;11074;48.596;9.238;2023-08-06T05:33:39;15.30;99.90
21823;DHT22;11074;48.596;9.238;2023-08-06T05:36:05;15.40;99.90
21823;DHT22;11074;48.596;9.238;2023-08-06T05:38:31;15.50;99.90
21823;DHT22;11074;48.596;9.238;2023-08-06T05:40:56;15.60;99.90
21823;DHT22;11074;48.596;9.238;2023-08-06T05:43:22;15.90;99.90
21823;DHT22;11074;48.596;9.238;2023-08-06T05:45:51;16.00;99.90
21823;DHT22;11074;48.596;9.238;2023-08-06T05:48:17;16.00;99.90
21823;DHT22;11074;48.596;9.238;2023-08-06T05:50:43;16.00;99.90
21823;DHT22;11074;48.596;9.238;2023-08-06T05:53:09;16.00;99.90
21823;DHT22;11074;48.596;9.238;2023-08-06T05:55:34;16.00;99.90
21823;DHT22;11074;48.596;9.238;2023-08-06T05:58:00;15.90;99.90
21823;DHT22;11074;48.596;9.238;2023-08-06T06:00:26;16.00;99.90
21823;DHT22;11074;48.596;9.238;2023-08-06T06:02:52;15.90;99.90
21823;DHT22;11074;48.596;9.238;2023-08-06T06:05:18;16.00;99.90
21823;DHT22;11074;48.596;9.238;2023-08-06T06:07:43;16.00;99.90
21823;DHT22;11074;48.596;9.238;2023-08-06T06:10:09;16.00;99.90
21823;DHT22;11074;48.596;9.238;2023-08-06T06:12:35;15.90;99.90
21823;DHT22;11074;48.596;9.238;2023-08-06T06:15:01;15.80;99.90
21823;DHT22;11074;48.596;9.238;2023-08-06T06:17:27;15.90;99.90
21823;DHT22;11074;48.596;9.238;2023-08-06T06:19:54;15.80;99.90
21823;DHT22;11074;48.596;9.238;2023-08-06T06:22:19;15.80;99.90
21823;DHT22;11074;48.596;9.238;2023-08-06T06:24:45;15.80;99.90
21823;DHT22;11074;48.596;9.238;2023-08-06T06:27:11;15.70;99.90
21823;DHT22;11074;48.596;9.238;2023-08-06T06:29:36;15.60;99.90
21823;DHT22;11074;48.596;9.238;2023-08-06T06:32:02;15.60;99.90
21823;DHT22;11074;48.596;9.238;2023-08-06T06:34:28;15.70;99.90
21823;DHT22;11074;48.596;9.238;2023-08-06T06:36:53;15.60;99.90
21823;DHT22;11074;48.596;9.238;2023-08-06T06:39:20;15.70;99.90
21823;DHT22;11074;48.596;9.238;2023-08-06T06:41:46;15.60;99.90
21823;DHT22;11074;48.596;9.238;2023-08-06T06:44:12;15.70;99.90
21823;DHT22;11074;48.596;9.238;2023-08-06T06:46:38;15.80;99.90
21823;DHT22;11074;48.596;9.238;2023-08-06T06:49:04;15.80;99.90
21823;DHT22;11074;48.596;9.238;2023-08-06T06:51:30;15.80;99.90
21823;DHT22;11074;48.596;9.238;2023-08-06T06:53:57;15.80;99.90
21823;DHT22;11074;48.596;9.238;2023-08-06T06:56:23;15.80;99.90
21823;DHT22;11074;48.596;9.238;2023-08-06T06:58:48;15.90;99.90
21823;DHT22;11074;48.596;9.238;2023-08-06T07:01:14;15.80;99.90
21823;DHT22;11074;48.596;9.238;2023-08-06T07:03:40;15.80;99.90
21823;DHT22;11074;48.596;9.238;2023-08-06T07:06:06;15.80;99.90
21823;DHT22;11074;48.596;9.238;2023-08-06T07:08:32;15.80;99.90
21823;DHT22;11074;48.596;9.238;2023-08-06T07:11:02;15.80;99.90
21823;DHT22;11074;48.596;9.238;2023-08-06T07:13:29;15.80;99.90
21823;DHT22;11074;48.596;9.238;2023-08-06T07:15:55;15.90;99.90
21823;DHT22;11074;48.596;9.238;2023-08-06T07:18:22;15.70;99.90
21823;DHT22;11074;48.596;9.238;2023-08-06T07:20:52;15.70;99.90
21823;DHT22;11074;48.596;9.238;2023-08-06T07:23:21;15.80;99.90
21823;DHT22;11074;48.596;9.238;2023-08-06T07:25:48;15.80;99.90
21823;DHT22;11074;48.596;9.238;2023-08-06T07:28:14;15.80;99.90
21823;DHT22;11074;48.596;9.238;2023-08-06T07:30:42;15.80;99.90
21823;DHT22;11074;48.596;9.238;2023-08-06T07:33:08;15.90;99.90
21823;DHT22;11074;48.596;9.238;2023-08-06T07:35:34;15.90;99.90
21823;DHT22;11074;48.596;9.238;2023-08-06T07:38:01;15.80;99.90
21823;DHT22;11074;48.596;9.238;2023-08-06T07:40:27;15.80;99.90
21823;DHT22;11074;48.596;9.238;2023-08-06T07:42:53;15.80;99.90
21823;DHT22;11074;48.596;9.238;2023-08-06T07:45:18;15.80;99.90
21823;DHT22;11074;48.596;9.238;2023-08-06T07:47:44;15.80;99.90
21823;DHT22;11074;48.596;9.238;2023-08-06T07:50:10;15.90;99.90
21823;DHT22;11074;48.596;9.238;2023-08-06T07:52:36;16.00;99.90
21823;DHT22;11074;48.596;9.238;2023-08-06T07:55:02;16.10;99.90
21823;DHT22;11074;48.596;9.238;2023-08-06T07:57:33;16.00;99.90
21823;DHT22;11074;48.596;9.238;2023-08-06T08:00:00;16.00;99.90
21823;DHT22;11074;48.596;9.238;2023-08-06T08:02:26;16.00;99.90
21823;DHT22;11074;48.596;9.238;2023-08-06T08:04:52;16.00;99.90
21823;DHT22;11074;48.596;9.238;2023-08-06T08:07:18;16.00;99.90
21823;DHT22;11074;48.596;9.238;2023-08-06T08:09:44;16.10;99.90
21823;DHT22;11074;48.596;9.238;2023-08-06T08:12:10;16.20;99.90
21823;DHT22;11074;48.596;9.238;2023-08-06T08:14:36;16.20;99.90
21823;DHT22;11074;48.596;9.238;2023-08-06T08:17:05;16.10;99.90
21823;DHT22;11074;48.596;9.238;2023-08-06T08:19:32;16.20;99.90
21823;DHT22;11074;48.596;9.238;2023-08-06T08:21:58;16.30;99.90
21823;DHT22;11074;48.596;9.238;2023-08-06T08:24:24;16.30;99.90
21823;DHT22;11074;48.596;9.238;2023-08-06T08:26:51;16.40;99.90
21823;DHT22;11074;48.596;9.238;2023-08-06T08:29:17;16.40;99.90
21823;DHT22;11074;48.596;9.238;2023-08-06T08:31:45;16.40;99.90
21823;DHT22;11074;48.596;9.238;2023-08-06T08:34:10;16.40;99.90
21823;DHT22;11074;48.596;9.238;2023-08-06T08:36:36;16.30;99.90
21823;DHT22;11074;48.596;9.238;2023-08-06T08:39:02;16.20;99.90
21823;DHT22;11074;48.596;9.238;2023-08-06T08:41:30;16.30;99.90
21823;DHT22;11074;48.596;9.238;2023-08-06T08:43:58;16.30;99.90
21823;DHT22;11074;48.596;9.238;2023-08-06T08:46:27;16.30;99.90
21823;DHT22;11074;48.596;9.238;2023-08-06T08:48:56;16.30;99.90
21823;DHT22;11074;48.596;9.238;2023-08-06T08:51:27;16.30;99.90
21823;DHT22;11074;48.596;9.238;2023-08-06T08:53:55;16.30;99.90
21823;DHT22;11074;48.596;9.238;2023-08-06T08:56:23;16.30;99.90
21823;DHT22;11074;48.596;9.238;2023-08-06T08:58:50;16.30;99.90
21823;DHT22;11074;48.596;9.238;2023-08-06T09:01:19;16.30;99.90
21823;DHT22;11074;48.596;9.238;2023-08-06T09:03:47;16.30;99.90
21823;DHT22;11074;48.596;9.238;2023-08-06T09:06:13;16.20;99.90
21823;DHT22;11074;48.596;9.238;2023-08-06T09:08:54;16.20;99.90
21823;DHT22;11074;48.596;9.238;2023-08-06T09:11:26;16.30;99.90
21823;DHT22;11074;48.596;9.238;2023-08-06T09:13:54;16.20;99.90
21823;DHT22;11074;48.596;9.238;2023-08-06T09:16:21;16.30;99.90
21823;DHT22;11074;48.596;9.238;2023-08-06T09:18:46;16.30;99.90
21823;DHT22;11074;48.596;9.238;2023-08-06T09:21:15;16.40;99.90
21823;DHT22;11074;48.596;9.238;2023-08-06T09:23:43;16.40;99.90
21823;DHT22;11074;48.596;9.238;2023-08-06T09:26:11;16.30;99.90
21823;DHT22;11074;48.596;9.238;2023-08-06T09:28:39;16.40;99.90
21823;DHT22;11074;48.596;9.238;2023-08-06T09:31:08;16.50;99.90
21823;DHT22;11074;48.596;9.238;2023-08-06T09:33:36;16.60;99.90
21823;DHT22;11074;48.596;9.238;2023-08-06T09:36:12;16.60;99.90
21823;DHT22;11074;48.596;9.238;2023-08-06T09:38:39;16.60;99.90
21823;DHT22;11074;48.596;9.238;2023-08-06T09:41:06;16.70;99.90
21823;DHT22;11074;48.596;9.238;2023-08-06T09:43:45;16.80;99.90
21823;DHT22;11074;48.596;9.238;2023-08-06T09:46:14;16.90;99.90
21823;DHT22;11074;48.596;9.238;2023-08-06T09:48:45;17.00;99.90
21823;DHT22;11074;48.596;9.238;2023-08-06T09:51:13;16.80;99.90
21823;DHT22;11074;48.596;9.238;2023-08-06T09:53:40;16.70;99.90
21823;DHT22;11074;48.596;9.238;2023-08-06T09:56:09;16.60;99.90
21823;DHT22;11074;48.596;9.238;2023-08-06T09:58:39;16.60;99.90
21823;DHT22;11074;48.596;9.238;2023-08-06T10:01:05;16.60;99.90
21823;DHT22;11074;48.596;9.238;2023-08-06T10:03:32;16.60;99.90
21823;DHT22;11074;48.596;9.238;2023-08-06T10:05:59;16.60;99.90
21823;DHT22;11074;48.596;9.238;2023-08-06T10:08:27;16.60;99.90
21823;DHT22;11074;48.596;9.238;2023-08-06T10:10:53;16.50;99.90
21823;DHT22;11074;48.596;9.238;2023-08-06T10:13:21;16.40;99.90
21823;DHT22;11074;48.596;9.238;2023-08-06T10:15:47;16.30;99.90
21823;DHT22;11074;48.596;9.238;2023-08-06T10:18:16;16.30;99.90
21823;DHT22;11074;48.596;9.238;2023-08-06T10:20:46;16.20;99.90
21823;DHT22;11074;48.596;9.238;2023-08-06T10:23:12;16.10;99.90
21823;DHT22;11074;48.596;9.238;2023-08-06T10:25:43;16.10;99.90
21823;DHT22;11074;48.596;9.238;2023-08-06T10:28:09;16.10;99.90
21823;DHT22;11074;48.596;9.238;2023-08-06T10:30:44;16.10;99.90
21823;DHT22;11074;48.596;9.238;2023-08-06T10:33:11;16.10;99.90
21823;DHT22;11074;48.596;9.238;2023-08-06T10:35:41;16.10;99.90
21823;DHT22;11074;48.596;9.238;2023-08-06T10:38:16;16.20;99.90
21823;DHT22;11074;48.596;9.238;2023-08-06T10:43:45;16.30;99.90
21823;DHT22;11074;48.596;9.238;2023-08-06T10:46:22;16.30;99.90
21823;DHT22;11074;48.596;9.238;2023-08-06T10:48:49;16.40;99.90
21823;DHT22;11074;48.596;9.238;2023-08-06T10:51:15;16.30;99.90
21823;DHT22;11074;48.596;9.238;2023-08-06T10:53:47;16.30;99.90
21823;DHT22;11074;48.596;9.238;2023-08-06T10:56:16;16.10;99.90
21823;DHT22;11074;48.596;9.238;2023-08-06T10:58:46;16.10;99.90
21823;DHT22;11074;48.596;9.238;2023-08-06T11:01:13;16.10;99.90
21823;DHT22;11074;48.596;9.238;2023-08-06T11:03:41;16.10;99.90
21823;DHT22;11074;48.596;9.238;2023-08-06T11:06:09;16.00;99.90
21823;DHT22;11074;48.596;9.238;2023-08-06T11:08:37;16.00;99.90
21823;DHT22;11074;48.596;9.238;2023-08-06T11:11:11;16.10;99.90
21823;DHT22;11074;48.596;9.238;2023-08-06T11:13:39;16.10;99.90
21823;DHT22;11074;48.596;9.238;2023-08-06T11:16:06;16.10;99.90
21823;DHT22;11074;48.596;9.238;2023-08-06T11:18:32;16.20;99.90
21823;DHT22;11074;48.596;9.238;2023-08-06T11:20:59;16.30;99.90
21823;DHT22;11074;48.596;9.238;2023-08-06T11:23:29;16.20;99.90
21823;DHT22;11074;48.596;9.238;2023-08-06T11:25:57;16.20;99.90
21823;DHT22;11074;48.596;9.238;2023-08-06T11:28:23;16.20;99.90
21823;DHT22;11074;48.596;9.238;2023-08-06T11:30:50;16.20;99.90
21823;DHT22;11074;48.596;9.238;2023-08-06T11:33:22;16.30;99.90
21823;DHT22;11074;48.596;9.238;2023-08-06T11:35:51;16.30;99.90
21823;DHT22;11074;48.596;9.238;2023-08-06T11:38:17;16.30;99.90
21823;DHT22;11074;48.596;9.238;2023-08-06T11:40:44;16.40;99.90
21823;DHT22;11074;48.596;9.238;2023-08-06T11:43:12;16.50;99.90
21823;DHT22;11074;48.596;9.238;2023-08-06T11:45:38;16.40;99.90
21823;DHT22;11074;48.596;9.238;2023-08-06T11:48:03;16.40;99.90
21823;DHT22;11074;48.596;9.238;2023-08-06T11:50:30;16.40;99.90
21823;DHT22;11074;48.596;9.238;2023-08-06T11:52:57;16.30;99.90
21823;DHT22;11074;48.596;9.238;2023-08-06T11:55:25;16.40;99.90
21823;DHT22;11074;48.596;9.238;2023-08-06T11:57:51;16.30;99.90
21823;DHT22;11074;48.596;9.238;2023-08-06T12:00:17;16.30;99.90
21823;DHT22;11074;48.596;9.238;2023-08-06T12:02:46;16.30;99.90
21823;DHT22;11074;48.596;9.238;2023-08-06T12:05:31;16.40;99.90
21823;DHT22;11074;48.596;9.238;2023-08-06T12:07:59;16.60;99.90
21823;DHT22;11074;48.596;9.238;2023-08-06T12:10:29;16.70;99.90
21823;DHT22;11074;48.596;9.238;2023-08-06T12:12:55;16.80;99.90
21823;DHT22;11074;48.596;9.238;2023-08-06T12:15:23;16.90;99.90
21823;DHT22;11074;48.596;9.238;2023-08-06T12:17:49;17.00;99.90
21823;DHT22;11074;48.596;9.238;2023-08-06T12:20:16;17.00;99.90
21823;DHT22;11074;48.596;9.238;2023-08-06T12:22:41;16.90;99.90
21823;DHT22;11074;48.596;9.238;2023-08-06T12:25:10;16.80;99.90
21823;DHT22;11074;48.596;9.238;2023-08-06T12:27:38;16.80;99.90
21823;DHT22;11074;48.596;9.238;2023-08-06T12:30:07;16.80;99.90
21823;DHT22;11074;48.596;9.238;2023-08-06T12:32:33;16.80;99.90
21823;DHT22;11074;48.596;9.238;2023-08-06T12:35:00;16.90;99.90
21823;DHT22;11074;48.596;9.238;2023-08-06T12:37:26;17.00;99.90
21823;DHT22;11074;48.596;9.238;2023-08-06T12:39:52;17.00;99.90
21823;DHT22;11074;48.596;9.238;2023-08-06T12:42:18;17.10;99.90
21823;DHT22;11074;48.596;9.238;2023-08-06T12:44:44;17.10;99.90
21823;DHT22;11074;48.596;9.238;2023-08-06T12:47:10;17.00;99.90
21823;DHT22;11074;48.596;9.238;2023-08-06T12:49:35;17.10;99.90
21823;DHT22;11074;48.596;9.238;2023-08-06T12:52:02;17.10;99.90
21823;DHT22;11074;48.596;9.238;2023-08-06T12:54:30;17.10;99.90
21823;DHT22;11074;48.596;9.238;2023-08-06T12:57:02;17.10;99.90
21823;DHT22;11074;48.596;9.238;2023-08-06T12:59:28;17.10;99.90
21823;DHT22;11074;48.596;9.238;2023-08-06T13:01:54;17.10;99.90
21823;DHT22;11074;48.596;9.238;2023-08-06T13:04:20;17.10;99.90
21823;DHT22;11074;48.596;9.238;2023-08-06T13:06:45;17.10;99.90
21823;DHT22;11074;48.596;9.238;2023-08-06T13:09:11;17.00;99.90
21823;DHT22;11074;48.596;9.238;2023-08-06T13:11:39;17.00;99.90
21823;DHT22;11074;48.596;9.238;2023-08-06T13:14:07;17.00;99.90
21823;DHT22;11074;48.596;9.238;2023-08-06T13:16:35;17.00;99.90
21823;DHT22;11074;48.596;9.238;2023-08-06T13:19:02;17.10;99.90
21823;DHT22;11074;48.596;9.238;2023-08-06T13:24:29;17.20;99.90
21823;DHT22;11074;48.596;9.238;2023-08-06T13:26:55;17.30;99.90
21823;DHT22;11074;48.596;9.238;2023-08-06T13:29:21;17.40;99.90
21823;DHT22;11074;48.596;9.238;2023-08-06T13:31:46;17.40;99.90
21823;DHT22;11074;48.596;9.238;2023-08-06T13:34:12;17.40;99.90
21823;DHT22;11074;48.596;9.238;2023-08-06T13:36:38;17.30;99.90
21823;DHT22;11074;48.596;9.238;2023-08-06T13:39:04;17.30;99.90
21823;DHT22;11074;48.596;9.238;2023-08-06T13:41:30;17.40;99.90
21823;DHT22;11074;48.596;9.238;2023-08-06T13:43:56;17.40;99.90
21823;DHT22;11074;48.596;9.238;2023-08-06T13:46:22;17.40;99.90
21823;DHT22;11074;48.596;9.238;2023-08-06T13:48:48;17.30;99.90
21823;DHT22;11074;48.596;9.238;2023-08-06T13:51:17;17.30;99.90
21823;DHT22;11074;48.596;9.238;2023-08-06T13:53:43;17.30;99.90
21823;DHT22;11074;48.596;9.238;2023-08-06T13:56:09;17.40;99.90
21823;DHT22;11074;48.596;9.238;2023-08-06T13:58:36;17.60;99.90
21823;DHT22;11074;48.596;9.238;2023-08-06T14:01:03;17.60;99.90
21823;DHT22;11074;48.596;9.238;2023-08-06T14:03:28;17.60;99.90
21823;DHT22;11074;48.596;9.238;2023-08-06T14:05:54;17.60;99.90
21823;DHT22;11074;48.596;9.238;2023-08-06T14:08:25;17.70;99.90
21823;DHT22;11074;48.596;9.238;2023-08-06T14:10:51;17.80;99.90
21823;DHT22;11074;48.596;9.238;2023-08-06T14:13:17;17.90;99.90
21823;DHT22;11074;48.596;9.238;2023-08-06T14:15:43;17.90;99.90
21823;DHT22;11074;48.596;9.238;2023-08-06T14:18:15;17.90;99.90
21823;DHT22;11074;48.596;9.238;2023-08-06T14:20:41;17.90;99.90
21823;DHT22;11074;48.596;9.238;2023-08-06T14:23:07;17.90;99.90
21823;DHT22;11074;48.596;9.238;2023-08-06T14:25:33;18.00;99.90
21823;DHT22;11074;48.596;9.238;2023-08-06T14:27:59;17.90;99.90
21823;DHT22;11074;48.596;9.238;2023-08-06T14:30:24;17.80;99.90
21823;DHT22;11074;48.596;9.238;2023-08-06T14:32:50;17.70;99.90
21823;DHT22;11074;48.596;9.238;2023-08-06T14:35:16;17.70;99.90
21823;DHT22;11074;48.596;9.238;2023-08-06T14:37:42;17.60;99.90
21823;DHT22;11074;48.596;9.238;2023-08-06T14:40:09;17.60;99.90
21823;DHT22;11074;48.596;9.238;2023-08-06T14:42:35;17.60;99.90
21823;DHT22;11074;48.596;9.238;2023-08-06T14:45:01;17.60;99.90
21823;DHT22;11074;48.596;9.238;2023-08-06T14:47:27;17.60;99.90
21823;DHT22;11074;48.596;9.238;2023-08-06T14:49:53;17.50;99.90
21823;DHT22;11074;48.596;9.238;2023-08-06T14:52:18;17.40;99.90
21823;DHT22;11074;48.596;9.238;2023-08-06T14:54:44;17.50;99.90
21823;DHT22;11074;48.596;9.238;2023-08-06T14:57:10;17.50;99.90
21823;DHT22;11074;48.596;9.238;2023-08-06T14:59:36;17.60;99.90
21823;DHT22;11074;48.596;9.238;2023-08-06T15:02:02;17.70;99.90
21823;DHT22;11074;48.596;9.238;2023-08-06T15:04:29;17.90;99.90
21823;DHT22;11074;48.596;9.238;2023-08-06T15:06:54;17.90;99.90
21823;DHT22;11074;48.596;9.238;2023-08-06T15:09:20;18.10;99.90
21823;DHT22;11074;48.596;9.238;2023-08-06T15:11:47;18.20;99.90
21823;DHT22;11074;48.596;9.238;2023-08-06T15:14:13;18.10;99.90
21823;DHT22;11074;48.596;9.238;2023-08-06T15:16:40;17.90;99.90
21823;DHT22;11074;48.596;9.238;2023-08-06T15:19:06;17.70;99.90
21823;DHT22;11074;48.596;9.238;2023-08-06T15:21:32;17.60;99.90
21823;DHT22;11074;48.596;9.238;2023-08-06T15:23:58;17.50;99.90
21823;DHT22;11074;48.596;9.238;2023-08-06T15:26:23;17.40;99.90
21823;DHT22;11074;48.596;9.238;2023-08-06T15:28:49;17.40;99.90
21823;DHT22;11074;48.596;9.238;2023-08-06T15:31:14;17.30;99.90
21823;DHT22;11074;48.596;9.238;2023-08-06T15:33:40;17.20;99.90